createdAt,value
2023-07-04T00:01:11.998Z,52.53
2023-07-04T00:03:43.661Z,52.15
2023-07-04T00:06:13.641Z,52.56
2023-07-04T00:08:40.716Z,53.07
2023-07-04T00:11:09.582Z,53.37
2023-07-04T00:13:38.370Z,53.43
2023-07-04T00:16:10.852Z,53.83
2023-07-04T00:18:40.596Z,53.20
2023-07-04T00:21:13.907Z,52.67
2023-07-04T00:23:43.156Z,51.95
2023-07-04T00:26:10.096Z,51.74
2023-07-04T00:28:39.924Z,51.23
2023-07-04T00:31:08.729Z,51.61
2023-07-04T00:33:35.577Z,51.51
2023-07-04T00:36:18.658Z,51.42
2023-07-04T00:38:52.877Z,51.01
2023-07-04T00:41:24.066Z,51.51
2023-07-04T00:44:00.144Z,52.01
2023-07-04T00:46:41.079Z,52.42
2023-07-04T00:49:24.201Z,51.97
2023-07-04T00:52:09.760Z,52.41
2023-07-04T00:54:53.684Z,51.85
2023-07-04T00:57:28.527Z,51.31
2023-07-04T01:00:01.704Z,51.38
2023-07-04T01:02:35.437Z,52.45
2023-07-04T01:05:06.441Z,52.24
2023-07-04T01:07:46.932Z,52.40
2023-07-04T01:10:23.219Z,52.00
2023-07-04T01:12:50.047Z,51.99
2023-07-04T01:15:18.486Z,52.02
2023-07-04T01:17:45.174Z,51.80
2023-07-04T01:20:17.663Z,52.25
2023-07-04T01:23:02.960Z,52.45
2023-07-04T01:25:53.892Z,52.11
2023-07-04T01:28:21.408Z,51.62
2023-07-04T01:30:48.681Z,52.48
2023-07-04T01:33:16.751Z,51.91
2023-07-04T01:35:44.211Z,52.61
2023-07-04T01:38:14.210Z,52.92
2023-07-04T01:40:40.829Z,52.88
2023-07-04T01:43:08.127Z,52.27
2023-07-04T01:45:34.789Z,52.99
2023-07-04T01:48:01.398Z,52.20
2023-07-04T01:50:28.055Z,52.25
2023-07-04T01:52:54.681Z,52.16
2023-07-04T01:55:21.446Z,51.64
2023-07-04T01:57:48.333Z,52.42
2023-07-04T02:00:17.789Z,52.42
2023-07-04T02:02:44.593Z,52.79
2023-07-04T02:05:11.423Z,52.54
2023-07-04T02:07:37.858Z,52.38
2023-07-04T02:10:04.853Z,52.86
2023-07-04T02:12:31.304Z,52.05
2023-07-04T02:14:57.805Z,52.98
2023-07-04T02:17:24.361Z,52.80
2023-07-04T02:19:51.106Z,52.10
2023-07-04T02:22:17.638Z,53.14
2023-07-04T02:24:44.120Z,53.02
2023-07-04T02:27:10.635Z,53.67
2023-07-04T02:29:37.167Z,53.88
2023-07-04T02:32:04.007Z,55.23
2023-07-04T02:34:30.581Z,56.63
2023-07-04T02:36:57.099Z,57.33
2023-07-04T02:39:27.261Z,58.12
2023-07-04T02:41:53.868Z,58.53
2023-07-04T02:44:20.292Z,59.88
2023-07-04T02:46:46.835Z,60.39
2023-07-04T02:49:13.404Z,60.02
2023-07-04T02:51:40.161Z,59.75
2023-07-04T02:54:06.710Z,59.64
2023-07-04T02:56:33.415Z,59.37
2023-07-04T02:58:59.909Z,59.50
2023-07-04T03:01:26.419Z,59.82
2023-07-04T03:03:53.070Z,60.07
2023-07-04T03:06:20.324Z,60.86
2023-07-04T03:08:46.855Z,61.02
2023-07-04T03:11:13.619Z,61.34
2023-07-04T03:13:40.198Z,61.71
2023-07-04T03:16:06.901Z,62.30
2023-07-04T03:18:34.746Z,62.53
2023-07-04T03:21:01.377Z,62.51
2023-07-04T03:23:27.923Z,62.57
2023-07-04T03:25:54.474Z,62.25
2023-07-04T03:28:21.067Z,63.00
2023-07-04T03:30:47.579Z,63.23
2023-07-04T03:33:14.204Z,63.33
2023-07-04T03:35:57.258Z,63.53
2023-07-04T03:38:26.401Z,62.74
2023-07-04T03:40:54.110Z,63.63
2023-07-04T03:43:21.023Z,63.33
2023-07-04T03:45:47.792Z,63.09
2023-07-04T03:48:14.498Z,62.63
2023-07-04T03:50:41.356Z,61.98
2023-07-04T03:53:08.807Z,61.91
2023-07-04T03:55:35.803Z,61.80
2023-07-04T03:58:03.366Z,62.41
2023-07-04T04:00:30.193Z,63.10
2023-07-04T04:02:57.165Z,62.87
2023-07-04T04:05:23.861Z,62.00
2023-07-04T04:07:50.424Z,61.70
2023-07-04T04:10:18.145Z,62.28
2023-07-04T04:12:44.971Z,62.33
2023-07-04T04:15:12.713Z,61.52
2023-07-04T04:17:39.408Z,61.44
2023-07-04T04:20:07.884Z,61.80
2023-07-04T04:22:35.191Z,61.97
2023-07-04T04:25:02.023Z,62.59
2023-07-04T04:27:28.612Z,62.21
2023-07-04T04:29:55.295Z,62.11
2023-07-04T04:32:23.439Z,62.78
2023-07-04T04:34:50.183Z,62.44
2023-07-04T04:37:17.294Z,62.44
2023-07-04T04:39:44.693Z,62.26
2023-07-04T04:42:15.361Z,62.90
2023-07-04T04:44:43.508Z,63.07
2023-07-04T04:47:10.061Z,63.31
2023-07-04T04:49:36.636Z,63.28
2023-07-04T04:52:03.408Z,61.78
2023-07-04T04:54:31.216Z,62.48
2023-07-04T04:56:58.001Z,62.47
2023-07-04T04:59:24.770Z,61.50
2023-07-04T05:01:51.296Z,62.25
2023-07-04T05:04:18.474Z,61.42
2023-07-04T05:06:44.951Z,62.01
2023-07-04T05:09:13.621Z,63.17
2023-07-04T05:11:40.128Z,63.80
2023-07-04T05:14:07.177Z,62.85
2023-07-04T05:16:33.697Z,62.94
2023-07-04T05:19:00.384Z,62.59
2023-07-04T05:21:26.989Z,62.97
2023-07-04T05:23:53.967Z,62.86
2023-07-04T05:26:26.133Z,61.31
2023-07-04T05:28:53.585Z,61.32
2023-07-04T05:31:27.310Z,62.08
2023-07-04T05:33:55.521Z,62.16
2023-07-04T05:36:24.560Z,61.93
2023-07-04T05:38:53.448Z,61.36
2023-07-04T05:41:23.050Z,61.41
2023-07-04T05:43:50.653Z,62.03
2023-07-04T05:46:19.083Z,61.56
2023-07-04T05:48:45.745Z,62.00
2023-07-04T05:51:15.767Z,61.43
2023-07-04T05:53:46.595Z,62.57
2023-07-04T05:56:18.807Z,62.20
2023-07-04T05:58:47.810Z,60.58
2023-07-04T06:01:21.623Z,60.43
2023-07-04T06:03:48.539Z,60.74
2023-07-04T06:06:35.094Z,60.14
2023-07-04T06:09:04.696Z,61.00
2023-07-04T06:11:34.597Z,61.41
2023-07-04T06:14:05.022Z,61.96
2023-07-04T06:16:32.069Z,61.24
2023-07-04T06:18:58.682Z,60.14
2023-07-04T06:21:38.292Z,60.23
2023-07-04T06:24:11.011Z,59.84
2023-07-04T06:26:37.893Z,58.16
2023-07-04T06:29:04.337Z,57.65
2023-07-04T06:31:30.938Z,57.32
2023-07-04T06:33:58.105Z,58.83
2023-07-04T06:36:25.717Z,60.93
2023-07-04T06:38:53.224Z,61.85
2023-07-04T06:41:20.454Z,61.05
2023-07-04T06:43:48.145Z,60.15
2023-07-04T06:46:20.113Z,59.47
2023-07-04T06:48:48.488Z,58.36
2023-07-04T06:51:18.119Z,57.90
2023-07-04T06:53:46.238Z,57.58
2023-07-04T06:56:15.638Z,58.62
2023-07-04T06:58:46.632Z,58.70
2023-07-04T07:01:13.415Z,58.75
2023-07-04T07:03:40.890Z,57.52
2023-07-04T07:06:10.279Z,58.44
2023-07-04T07:08:38.089Z,58.02
2023-07-04T07:11:12.863Z,56.95
2023-07-04T07:13:41.023Z,55.22
2023-07-04T07:18:42.799Z,56.08
2023-07-04T07:21:11.581Z,54.64
2023-07-04T07:23:40.009Z,53.87
2023-07-04T07:26:09.418Z,55.68
2023-07-04T07:28:40.991Z,55.74
2023-07-04T07:31:11.150Z,54.65
2023-07-04T07:33:41.078Z,55.97
2023-07-04T07:36:16.243Z,55.82
2023-07-04T07:38:43.809Z,56.17
2023-07-04T07:41:11.206Z,55.69
2023-07-04T07:43:39.289Z,56.72
2023-07-04T07:46:14.360Z,55.16
2023-07-04T07:48:41.935Z,54.71
2023-07-04T07:51:11.686Z,54.18
2023-07-04T07:53:40.008Z,51.92
2023-07-04T07:56:08.736Z,52.48
2023-07-04T07:58:36.345Z,54.01
2023-07-04T08:01:13.453Z,54.33
2023-07-04T08:03:40.591Z,55.82
2023-07-04T08:06:11.108Z,55.80
2023-07-04T08:08:37.717Z,55.76
2023-07-04T08:11:04.280Z,56.00
2023-07-04T08:13:31.003Z,56.45
2023-07-04T08:15:57.570Z,54.63
2023-07-04T08:18:25.462Z,54.97
2023-07-04T08:20:59.922Z,54.83
2023-07-04T08:23:26.713Z,55.24
2023-07-04T08:25:53.685Z,55.35
2023-07-04T08:28:22.798Z,55.34
2023-07-04T08:30:52.442Z,54.76
2023-07-04T08:33:20.145Z,53.96
2023-07-04T08:36:02.085Z,52.90
2023-07-04T08:38:29.190Z,52.32
2023-07-04T08:40:56.424Z,52.24
2023-07-04T08:43:45.277Z,51.65
2023-07-04T08:46:14.628Z,49.26
2023-07-04T08:48:43.501Z,51.08
2023-07-04T08:51:14.489Z,48.01
2023-07-04T08:53:44.505Z,47.34
2023-07-04T08:56:35.440Z,47.11
2023-07-04T08:59:29.620Z,47.55
2023-07-04T09:02:30.527Z,49.05
2023-07-04T09:05:06.062Z,49.88
2023-07-04T09:07:47.016Z,48.76
2023-07-04T09:10:53.056Z,46.94
2023-07-04T09:13:42.322Z,46.19
2023-07-04T09:16:13.908Z,46.35
2023-07-04T09:18:53.777Z,44.41
2023-07-04T09:21:22.520Z,44.77
2023-07-04T09:23:51.307Z,43.15
2023-07-04T09:26:22.216Z,43.75
2023-07-04T09:28:52.274Z,44.99
2023-07-04T09:31:46.388Z,43.77
2023-07-04T09:34:33.150Z,44.87
2023-07-04T09:37:04.728Z,45.48
2023-07-04T09:42:46.973Z,43.94
2023-07-04T09:45:23.586Z,43.86
2023-07-04T09:47:50.473Z,44.13
2023-07-04T09:50:26.395Z,42.24
2023-07-04T09:53:06.580Z,42.15
2023-07-04T09:55:33.308Z,42.26
2023-07-04T09:58:24.584Z,44.30
2023-07-04T10:01:12.343Z,44.01
2023-07-04T10:03:42.717Z,41.90
2023-07-04T10:06:11.808Z,42.56
2023-07-04T10:08:55.758Z,42.02
2023-07-04T10:11:41.058Z,42.77
2023-07-04T10:14:11.468Z,42.38
2023-07-04T10:16:46.270Z,40.21
2023-07-04T10:19:16.174Z,41.28
2023-07-04T10:21:44.731Z,40.85
2023-07-04T10:24:17.556Z,41.12
2023-07-04T10:26:48.072Z,42.54
2023-07-04T10:29:16.655Z,41.57
2023-07-04T10:31:43.738Z,42.03
2023-07-04T10:34:15.947Z,43.14
2023-07-04T10:36:44.455Z,42.77
2023-07-04T10:39:15.833Z,44.83
2023-07-04T10:41:53.644Z,46.26
2023-07-04T10:44:25.158Z,46.62
2023-07-04T10:47:01.534Z,46.36
2023-07-04T10:49:31.657Z,44.58
2023-07-04T10:52:15.666Z,44.53
2023-07-04T10:54:42.381Z,45.74
2023-07-04T10:57:24.762Z,43.69
2023-07-04T10:59:57.323Z,44.04
2023-07-04T11:02:39.178Z,45.20
2023-07-04T11:05:17.498Z,43.89
2023-07-04T11:07:45.615Z,45.73
2023-07-04T11:10:14.872Z,45.12
2023-07-04T11:12:44.052Z,43.84
2023-07-04T11:15:25.070Z,45.15
2023-07-04T11:17:51.843Z,44.85
2023-07-04T11:20:24.095Z,43.05
2023-07-04T11:23:02.177Z,43.15
2023-07-04T11:25:32.258Z,43.90
2023-07-04T11:28:17.363Z,43.36
2023-07-04T11:30:46.827Z,41.76
2023-07-04T11:33:54.901Z,41.48
2023-07-04T11:36:59.976Z,42.22
2023-07-04T11:39:32.923Z,42.66
2023-07-04T11:42:15.936Z,42.47
2023-07-04T11:44:53.079Z,43.00
2023-07-04T11:47:39.061Z,41.95
2023-07-04T11:50:13.412Z,38.53
2023-07-04T11:52:46.875Z,39.10
2023-07-04T11:55:17.839Z,39.16
2023-07-04T11:58:00.494Z,38.52
2023-07-04T12:00:33.659Z,39.89
2023-07-04T12:03:20.843Z,39.61
2023-07-04T12:05:53.320Z,41.41
2023-07-04T12:08:30.094Z,41.09
2023-07-04T12:11:00.896Z,40.60
2023-07-04T12:13:31.671Z,39.72
2023-07-04T12:16:04.853Z,40.55
2023-07-04T12:18:40.721Z,39.78
2023-07-04T12:21:11.308Z,40.67
2023-07-04T12:23:40.200Z,39.72
2023-07-04T12:26:09.846Z,39.65
2023-07-04T12:28:39.381Z,40.05
2023-07-04T12:33:45.717Z,38.95
2023-07-04T12:36:16.901Z,39.64
2023-07-04T12:38:54.677Z,39.17
2023-07-04T12:47:21.200Z,39.47
2023-07-04T12:49:50.755Z,38.85
2023-07-04T12:52:18.951Z,39.87
2023-07-04T12:54:50.118Z,38.67
2023-07-04T12:57:23.095Z,38.96
2023-07-04T12:59:51.249Z,39.82
2023-07-04T13:02:27.283Z,38.72
2023-07-04T13:04:58.984Z,38.01
2023-07-04T13:07:26.672Z,37.70
2023-07-04T13:10:05.461Z,38.77
2023-07-04T13:12:58.010Z,38.76
2023-07-04T13:15:29.265Z,38.71
2023-07-04T13:18:02.560Z,38.49
2023-07-04T13:20:32.415Z,37.95
2023-07-04T13:25:54.821Z,35.61
2023-07-04T13:34:31.866Z,36.10
2023-07-04T13:37:03.370Z,36.08
2023-07-04T13:42:05.925Z,36.67
2023-07-04T13:47:09.881Z,36.63
2023-07-04T13:49:43.622Z,36.50
2023-07-04T13:52:13.642Z,37.05
2023-07-04T13:54:40.861Z,36.70
2023-07-04T13:57:08.066Z,36.32
2023-07-04T13:59:35.156Z,36.15
2023-07-04T14:07:04.455Z,35.15
2023-07-04T14:09:32.447Z,35.12
2023-07-04T14:11:59.760Z,34.74
2023-07-04T14:21:59.581Z,33.79
2023-07-04T14:24:26.951Z,34.19
2023-07-04T14:26:56.619Z,34.19
2023-07-04T14:29:26.483Z,34.63
2023-07-04T14:31:53.940Z,33.82
2023-07-04T14:34:22.218Z,35.39
2023-07-04T14:36:49.898Z,35.71
2023-07-04T14:39:17.276Z,35.55
2023-07-04T14:44:14.659Z,36.32
2023-07-04T14:46:44.829Z,36.36
2023-07-04T14:49:12.207Z,36.00
2023-07-04T14:51:39.521Z,36.22
2023-07-04T14:54:07.134Z,36.52
2023-07-04T14:56:45.678Z,35.94
2023-07-04T14:59:18.232Z,35.08
2023-07-04T15:01:45.610Z,35.48
2023-07-04T15:04:13.181Z,35.72
2023-07-04T15:06:40.366Z,35.02
2023-07-04T15:09:07.577Z,35.52
2023-07-04T15:11:35.151Z,36.02
2023-07-04T15:14:02.866Z,35.83
2023-07-04T15:16:30.442Z,35.85
2023-07-04T15:18:57.742Z,35.53
2023-07-04T15:21:27.557Z,35.85
2023-07-04T15:23:54.798Z,35.88
2023-07-04T15:26:26.884Z,35.78
2023-07-04T15:28:56.753Z,35.97
2023-07-04T15:31:25.457Z,35.48
2023-07-04T15:33:54.660Z,34.88
2023-07-04T15:36:24.467Z,34.05
2023-07-04T15:38:52.629Z,34.10
2023-07-04T15:41:22.677Z,34.21
2023-07-04T15:43:50.314Z,33.85
2023-07-04T15:46:18.080Z,33.59
2023-07-04T15:48:46.246Z,33.81
2023-07-04T15:51:16.231Z,33.59
2023-07-04T15:53:44.070Z,33.63
2023-07-04T15:56:18.269Z,33.67
2023-07-04T15:58:45.953Z,32.29
2023-07-04T16:01:13.803Z,33.10
2023-07-04T16:03:41.538Z,32.44
2023-07-04T16:06:10.269Z,32.89
2023-07-04T16:08:39.874Z,32.66
2023-07-04T16:11:09.974Z,32.45
2023-07-04T16:13:37.636Z,32.63
2023-07-04T16:16:05.542Z,32.42
2023-07-04T16:18:33.042Z,32.86
2023-07-04T16:21:01.458Z,32.81
2023-07-04T16:23:29.968Z,32.17
2023-07-04T16:25:59.014Z,32.49
2023-07-04T16:28:26.716Z,31.71
2023-07-04T16:31:05.234Z,33.96
2023-07-04T16:33:35.347Z,32.99
2023-07-04T16:36:05.288Z,33.37
2023-07-04T16:38:32.803Z,33.54
2023-07-04T16:41:00.053Z,35.01
2023-07-04T16:43:27.422Z,33.68
2023-07-04T16:45:58.201Z,34.71
2023-07-04T16:48:25.890Z,34.20
2023-07-04T16:50:59.764Z,34.37
2023-07-04T16:53:28.967Z,34.05
2023-07-04T16:56:01.202Z,33.85
2023-07-04T16:58:31.007Z,34.22
2023-07-04T17:01:00.879Z,33.39
2023-07-04T17:03:29.292Z,34.91
2023-07-04T17:06:06.615Z,34.17
2023-07-04T17:08:38.435Z,33.32
2023-07-04T17:11:09.412Z,34.09
2023-07-04T17:13:43.806Z,34.19
2023-07-04T17:16:13.733Z,34.49
2023-07-04T17:18:41.413Z,35.25
2023-07-04T17:21:10.286Z,35.74
2023-07-04T17:23:38.349Z,35.74
2023-07-04T17:26:05.965Z,35.97
2023-07-04T17:28:35.018Z,35.78
2023-07-04T17:31:06.126Z,36.10
2023-07-04T17:33:34.182Z,35.64
2023-07-04T17:36:06.622Z,35.85
2023-07-04T17:38:35.537Z,35.97
2023-07-04T17:41:08.083Z,36.09
2023-07-04T17:43:36.351Z,36.30
2023-07-04T17:46:08.924Z,36.65
2023-07-04T17:48:36.889Z,36.80
2023-07-04T17:51:10.269Z,37.19
2023-07-04T17:53:37.944Z,37.68
2023-07-04T17:56:11.351Z,37.79
2023-07-04T17:58:41.017Z,37.56
2023-07-04T18:01:13.521Z,38.20
2023-07-04T18:03:43.729Z,37.91
2023-07-04T18:06:12.294Z,37.98
2023-07-04T18:08:42.333Z,38.52
2023-07-04T18:11:15.564Z,38.54
2023-07-04T18:13:44.770Z,38.69
2023-07-04T18:16:13.446Z,38.82
2023-07-04T18:18:40.865Z,39.06
2023-07-04T18:21:11.003Z,40.84
2023-07-04T18:23:38.143Z,41.90
2023-07-04T18:26:07.837Z,43.38
2023-07-04T18:28:38.423Z,43.82
2023-07-04T18:31:08.030Z,44.42
2023-07-04T18:33:36.639Z,45.23
2023-07-04T18:36:15.829Z,46.04
2023-07-04T18:38:44.522Z,46.30
2023-07-04T18:41:14.486Z,46.79
2023-07-04T18:43:41.953Z,47.27
2023-07-04T18:46:09.660Z,47.44
2023-07-04T18:48:43.153Z,47.80
2023-07-04T18:51:19.676Z,47.89
2023-07-04T18:53:47.556Z,48.26
2023-07-04T18:56:14.834Z,48.69
2023-07-04T18:58:43.680Z,49.14
2023-07-04T19:01:17.466Z,49.51
2023-07-04T19:03:46.195Z,50.13
2023-07-04T19:06:17.471Z,50.68
2023-07-04T19:08:46.916Z,51.08
2023-07-04T19:11:16.906Z,50.45
2023-07-04T19:14:09.940Z,50.97
2023-07-04T19:16:55.444Z,49.28
2023-07-04T19:19:37.450Z,49.23
2023-07-04T19:22:08.485Z,50.53
2023-07-04T19:24:38.384Z,49.71
2023-07-04T19:27:08.198Z,49.83
2023-07-04T19:29:35.664Z,49.53
2023-07-04T19:32:03.249Z,49.71
2023-07-04T19:34:30.909Z,49.92
2023-07-04T19:36:58.681Z,50.08
2023-07-04T19:39:27.659Z,49.64
2023-07-04T19:41:55.084Z,49.80
2023-07-04T19:44:22.926Z,50.12
2023-07-04T19:46:50.424Z,49.91
2023-07-04T19:49:18.888Z,50.10
2023-07-04T19:51:46.587Z,50.11
2023-07-04T19:54:14.313Z,50.55
2023-07-04T19:56:41.830Z,50.58
2023-07-04T19:59:09.207Z,51.16
2023-07-04T20:01:37.557Z,51.57
2023-07-04T20:04:05.510Z,51.87
2023-07-04T20:06:34.226Z,51.80
2023-07-04T20:09:01.886Z,52.30
2023-07-04T20:11:29.224Z,52.48
2023-07-04T20:13:56.650Z,52.74
2023-07-04T20:16:30.392Z,52.52
2023-07-04T20:18:58.575Z,53.08
2023-07-04T20:21:27.511Z,52.91
2023-07-04T20:23:54.975Z,53.33
2023-07-04T20:26:22.769Z,52.86
2023-07-04T20:28:50.252Z,53.50
2023-07-04T20:31:17.940Z,53.49
2023-07-04T20:33:45.546Z,53.62
2023-07-04T20:36:12.802Z,53.97
2023-07-04T20:38:40.981Z,53.60
2023-07-04T20:41:10.883Z,53.75
2023-07-04T20:43:38.157Z,53.63
2023-07-04T20:46:06.418Z,53.70
2023-07-04T20:48:34.558Z,53.43
2023-07-04T20:51:05.470Z,53.06
2023-07-04T20:53:32.915Z,53.94
2023-07-04T20:56:00.769Z,52.70
2023-07-04T20:58:28.105Z,52.75
2023-07-04T21:00:55.757Z,52.71
2023-07-04T21:03:24.802Z,56.20
2023-07-04T21:05:56.207Z,52.98
2023-07-04T21:08:24.674Z,53.44
2023-07-04T21:11:04.129Z,59.19
2023-07-04T21:13:33.430Z,54.24
2023-07-04T21:16:05.571Z,53.60
2023-07-04T21:18:33.420Z,53.99
2023-07-04T21:21:00.761Z,55.27
2023-07-04T21:23:27.937Z,54.32
2023-07-04T21:26:05.478Z,54.44
2023-07-04T21:28:32.726Z,54.39
2023-07-04T21:31:10.610Z,54.45
2023-07-04T21:33:39.795Z,55.40
2023-07-04T21:36:08.216Z,54.78
2023-07-04T21:38:38.435Z,54.09
2023-07-04T21:41:07.400Z,55.79
2023-07-04T21:43:34.685Z,55.11
2023-07-04T21:46:05.732Z,56.33
2023-07-04T21:48:33.395Z,56.96
2023-07-04T21:51:02.458Z,57.42
2023-07-04T21:53:29.582Z,54.95
2023-07-04T21:55:56.997Z,54.04
2023-07-04T21:58:25.028Z,54.90
2023-07-04T22:00:52.520Z,55.41
2023-07-04T22:03:20.606Z,55.12
2023-07-04T22:05:48.331Z,54.57
2023-07-04T22:08:18.383Z,53.00
2023-07-04T22:10:56.478Z,52.67
2023-07-04T22:13:28.150Z,54.28
2023-07-04T22:15:55.611Z,54.61
2023-07-04T22:18:22.993Z,54.00
2023-07-04T22:20:50.189Z,54.91
2023-07-04T22:23:17.544Z,54.20
2023-07-04T22:25:44.722Z,54.11
2023-07-04T22:28:11.932Z,52.92
2023-07-04T22:30:39.167Z,52.79
2023-07-04T22:33:06.627Z,53.64
2023-07-04T22:35:36.120Z,54.81
2023-07-04T22:38:03.353Z,55.09
2023-07-04T22:40:30.517Z,55.39
2023-07-04T22:42:57.791Z,55.45
2023-07-04T22:45:24.956Z,56.18
2023-07-04T22:47:52.093Z,57.06
2023-07-04T22:50:21.855Z,56.47
2023-07-04T22:52:49.382Z,56.63
2023-07-04T22:55:16.804Z,56.66
2023-07-04T22:57:44.061Z,57.11
2023-07-04T23:00:12.361Z,57.01
2023-07-04T23:02:39.720Z,57.40
2023-07-04T23:05:07.212Z,57.03
2023-07-04T23:07:34.363Z,57.83
2023-07-04T23:10:02.243Z,57.52
2023-07-04T23:12:29.415Z,56.82
2023-07-04T23:14:56.698Z,57.62
2023-07-04T23:17:23.925Z,57.21
2023-07-04T23:19:51.309Z,57.10
2023-07-04T23:22:18.536Z,56.94
2023-07-04T23:24:45.701Z,57.29
2023-07-04T23:27:12.954Z,57.92
2023-07-04T23:29:40.109Z,57.63
2023-07-04T23:32:07.741Z,58.64
2023-07-04T23:34:34.931Z,58.61
2023-07-04T23:37:02.146Z,58.85
2023-07-04T23:39:29.254Z,58.39
2023-07-04T23:41:56.568Z,59.10
2023-07-04T23:44:23.722Z,59.81
2023-07-04T23:46:50.984Z,60.08
